Terminal Aerodrome Forecast
Issued by NWS Medford, OR

Home | Current Version | Previous Version | Text Only | Print | Product List | Glossary On
Versions: 1 2 3 4 5 6 7 8 9 10 11 12 13 14 15 16 17 18 19 20 21 22 23 24 25 26 27 28
000
FTUS46 KMFR 141256 AAA
TAFMFR
TAF AMD
KMFR 141256Z 1413/1512 00000KT 4SM BR SKC
     FM141400 00000KT 1/4SM FZFG VV002
     FM141900 VRB03KT 6SM BR SCT003 SCT250
     FM142100 VRB03KT P6SM SCT250
     FM150800 VRB03KT 5SM BR SCT250=

USA.gov is the U.S. government's official web portal to all federal, state and local government web resources and services.